sensor_id;sensor_type;location;lat;lon;timestamp;temperature;humidity
2012;DHT22;1009;51.436;6.972;2022-10-14T00:00:54;13.70;99.90
2012;DHT22;1009;51.436;6.972;2022-10-14T00:03:27;13.70;99.90
2012;DHT22;1009;51.436;6.972;2022-10-14T00:05:54;13.60;99.90
2012;DHT22;1009;51.436;6.972;2022-10-14T00:08:22;13.60;99.90
2012;DHT22;1009;51.436;6.972;2022-10-14T00:10:49;13.70;99.90
2012;DHT22;1009;51.436;6.972;2022-10-14T00:13:15;13.70;99.90
2012;DHT22;1009;51.436;6.972;2022-10-14T00:15:42;13.60;99.90
2012;DHT22;1009;51.436;6.972;2022-10-14T00:18:09;13.70;99.90
2012;DHT22;1009;51.436;6.972;2022-10-14T00:20:37;13.60;99.90
2012;DHT22;1009;51.436;6.972;2022-10-14T00:23:04;13.70;99.90
2012;DHT22;1009;51.436;6.972;2022-10-14T00:25:31;13.70;99.90
2012;DHT22;1009;51.436;6.972;2022-10-14T00:28:02;13.60;99.90
2012;DHT22;1009;51.436;6.972;2022-10-14T00:30:29;13.50;99.90
2012;DHT22;1009;51.436;6.972;2022-10-14T00:32:55;13.60;99.90
2012;DHT22;1009;51.436;6.972;2022-10-14T00:35:22;13.60;99.90
2012;DHT22;1009;51.436;6.972;2022-10-14T00:37:50;13.60;99.90
2012;DHT22;1009;51.436;6.972;2022-10-14T00:40:17;13.60;99.90
2012;DHT22;1009;51.436;6.972;2022-10-14T00:42:44;13.60;99.90
2012;DHT22;1009;51.436;6.972;2022-10-14T00:45:13;13.50;99.90
2012;DHT22;1009;51.436;6.972;2022-10-14T00:47:41;13.50;99.90
2012;DHT22;1009;51.436;6.972;2022-10-14T00:50:11;13.60;99.90
2012;DHT22;1009;51.436;6.972;2022-10-14T00:52:38;13.70;99.90
2012;DHT22;1009;51.436;6.972;2022-10-14T00:55:11;13.70;99.90
2012;DHT22;1009;51.436;6.972;2022-10-14T00:57:39;13.80;99.90
2012;DHT22;1009;51.436;6.972;2022-10-14T01:00:09;13.90;99.90
2012;DHT22;1009;51.436;6.972;2022-10-14T01:02:36;13.70;99.90
2012;DHT22;1009;51.436;6.972;2022-10-14T01:05:04;13.70;99.90
2012;DHT22;1009;51.436;6.972;2022-10-14T01:07:39;13.90;99.90
2012;DHT22;1009;51.436;6.972;2022-10-14T01:10:13;13.80;99.90
2012;DHT22;1009;51.436;6.972;2022-10-14T01:12:54;13.80;99.90
2012;DHT22;1009;51.436;6.972;2022-10-14T01:15:32;13.90;99.90
2012;DHT22;1009;51.436;6.972;2022-10-14T01:18:16;13.90;99.90
2012;DHT22;1009;51.436;6.972;2022-10-14T01:20:54;13.90;99.90
2012;DHT22;1009;51.436;6.972;2022-10-14T01:26:42;13.90;99.90
2012;DHT22;1009;51.436;6.972;2022-10-14T01:29:25;14.00;99.90
2012;DHT22;1009;51.436;6.972;2022-10-14T01:31:59;13.90;99.90
2012;DHT22;1009;51.436;6.972;2022-10-14T01:34:32;13.90;99.90
2012;DHT22;1009;51.436;6.972;2022-10-14T01:37:04;13.90;99.90
2012;DHT22;1009;51.436;6.972;2022-10-14T01:39:38;13.90;99.90
2012;DHT22;1009;51.436;6.972;2022-10-14T01:42:11;13.90;99.90
2012;DHT22;1009;51.436;6.972;2022-10-14T01:44:41;13.90;99.90
2012;DHT22;1009;51.436;6.972;2022-10-14T01:47:12;13.90;99.90
2012;DHT22;1009;51.436;6.972;2022-10-14T01:49:43;13.90;99.90
2012;DHT22;1009;51.436;6.972;2022-10-14T01:52:14;13.80;99.90
2012;DHT22;1009;51.436;6.972;2022-10-14T01:54:46;13.90;99.90
2012;DHT22;1009;51.436;6.972;2022-10-14T01:57:17;14.00;99.90
2012;DHT22;1009;51.436;6.972;2022-10-14T01:59:45;13.90;99.90
2012;DHT22;1009;51.436;6.972;2022-10-14T02:02:14;13.90;99.90
2012;DHT22;1009;51.436;6.972;2022-10-14T02:04:40;13.90;99.90
2012;DHT22;1009;51.436;6.972;2022-10-14T02:07:12;14.00;99.90
2012;DHT22;1009;51.436;6.972;2022-10-14T02:09:46;14.00;99.90
2012;DHT22;1009;51.436;6.972;2022-10-14T02:12:22;14.00;99.90
2012;DHT22;1009;51.436;6.972;2022-10-14T02:15:03;13.90;99.90
2012;DHT22;1009;51.436;6.972;2022-10-14T02:17:41;13.90;99.90
2012;DHT22;1009;51.436;6.972;2022-10-14T02:20:18;13.90;99.90
2012;DHT22;1009;51.436;6.972;2022-10-14T02:22:48;13.90;99.90
2012;DHT22;1009;51.436;6.972;2022-10-14T02:25:20;13.80;99.90
2012;DHT22;1009;51.436;6.972;2022-10-14T02:27:49;13.90;99.90
2012;DHT22;1009;51.436;6.972;2022-10-14T02:30:18;13.90;99.90
2012;DHT22;1009;51.436;6.972;2022-10-14T02:32:46;13.80;99.90
2012;DHT22;1009;51.436;6.972;2022-10-14T02:35:17;13.90;99.90
2012;DHT22;1009;51.436;6.972;2022-10-14T02:37:46;13.90;99.90
2012;DHT22;1009;51.436;6.972;2022-10-14T02:40:15;13.90;99.90
2012;DHT22;1009;51.436;6.972;2022-10-14T02:42:44;13.90;99.90
2012;DHT22;1009;51.436;6.972;2022-10-14T02:45:12;13.90;99.90
2012;DHT22;1009;51.436;6.972;2022-10-14T02:47:40;13.70;99.90
2012;DHT22;1009;51.436;6.972;2022-10-14T02:50:09;13.90;99.90
2012;DHT22;1009;51.436;6.972;2022-10-14T02:52:36;13.80;99.90
2012;DHT22;1009;51.436;6.972;2022-10-14T02:55:03;13.90;99.90
2012;DHT22;1009;51.436;6.972;2022-10-14T02:57:30;13.80;99.90
2012;DHT22;1009;51.436;6.972;2022-10-14T02:59:57;13.80;99.90
2012;DHT22;1009;51.436;6.972;2022-10-14T03:02:23;13.80;99.90
2012;DHT22;1009;51.436;6.972;2022-10-14T03:04:50;13.60;99.90
2012;DHT22;1009;51.436;6.972;2022-10-14T03:07:18;13.70;99.90
2012;DHT22;1009;51.436;6.972;2022-10-14T03:09:45;13.70;99.90
2012;DHT22;1009;51.436;6.972;2022-10-14T03:12:12;13.70;99.90
2012;DHT22;1009;51.436;6.972;2022-10-14T03:14:38;13.70;99.90
2012;DHT22;1009;51.436;6.972;2022-10-14T03:17:05;13.70;99.90
2012;DHT22;1009;51.436;6.972;2022-10-14T03:19:32;13.70;99.90
2012;DHT22;1009;51.436;6.972;2022-10-14T03:21:59;13.90;99.90
2012;DHT22;1009;51.436;6.972;2022-10-14T03:24:27;13.80;99.90
2012;DHT22;1009;51.436;6.972;2022-10-14T03:26:54;13.80;99.90
2012;DHT22;1009;51.436;6.972;2022-10-14T03:29:20;13.80;99.90
2012;DHT22;1009;51.436;6.972;2022-10-14T03:31:47;13.90;99.90
2012;DHT22;1009;51.436;6.972;2022-10-14T03:34:14;14.00;99.90
2012;DHT22;1009;51.436;6.972;2022-10-14T03:36:41;14.00;99.90
2012;DHT22;1009;51.436;6.972;2022-10-14T03:39:08;13.90;99.90
2012;DHT22;1009;51.436;6.972;2022-10-14T03:41:37;14.00;99.90
2012;DHT22;1009;51.436;6.972;2022-10-14T03:44:04;13.80;99.90
2012;DHT22;1009;51.436;6.972;2022-10-14T03:46:30;13.90;99.90
2012;DHT22;1009;51.436;6.972;2022-10-14T03:48:57;13.90;99.90
2012;DHT22;1009;51.436;6.972;2022-10-14T03:51:24;13.90;99.90
2012;DHT22;1009;51.436;6.972;2022-10-14T03:53:51;13.80;99.90
2012;DHT22;1009;51.436;6.972;2022-10-14T03:56:18;13.80;99.90
2012;DHT22;1009;51.436;6.972;2022-10-14T03:58:46;13.90;99.90
2012;DHT22;1009;51.436;6.972;2022-10-14T04:01:12;13.80;99.90
2012;DHT22;1009;51.436;6.972;2022-10-14T04:03:39;13.70;99.90
2012;DHT22;1009;51.436;6.972;2022-10-14T04:06:06;13.60;99.90
2012;DHT22;1009;51.436;6.972;2022-10-14T04:08:33;13.70;99.90
2012;DHT22;1009;51.436;6.972;2022-10-14T04:11:00;13.70;99.90
2012;DHT22;1009;51.436;6.972;2022-10-14T04:13:26;13.80;99.90
2012;DHT22;1009;51.436;6.972;2022-10-14T04:15:54;13.60;99.90
2012;DHT22;1009;51.436;6.972;2022-10-14T04:18:21;13.70;99.90
2012;DHT22;1009;51.436;6.972;2022-10-14T04:20:48;13.70;99.90
2012;DHT22;1009;51.436;6.972;2022-10-14T04:23:15;13.70;99.90
2012;DHT22;1009;51.436;6.972;2022-10-14T04:25:41;13.80;99.90
2012;DHT22;1009;51.436;6.972;2022-10-14T04:28:08;13.90;99.90
2012;DHT22;1009;51.436;6.972;2022-10-14T04:30:35;13.80;99.90
2012;DHT22;1009;51.436;6.972;2022-10-14T04:33:03;13.90;99.90
2012;DHT22;1009;51.436;6.972;2022-10-14T04:35:30;13.80;99.90
2012;DHT22;1009;51.436;6.972;2022-10-14T04:37:57;13.70;99.90
2012;DHT22;1009;51.436;6.972;2022-10-14T04:40:23;13.70;99.90
2012;DHT22;1009;51.436;6.972;2022-10-14T04:42:54;13.60;99.90
2012;DHT22;1009;51.436;6.972;2022-10-14T04:45:21;13.70;99.90
2012;DHT22;1009;51.436;6.972;2022-10-14T04:47:48;13.70;99.90
2012;DHT22;1009;51.436;6.972;2022-10-14T04:50:17;13.90;99.90
2012;DHT22;1009;51.436;6.972;2022-10-14T04:52:44;13.80;99.90
2012;DHT22;1009;51.436;6.972;2022-10-14T04:55:11;13.80;99.90
2012;DHT22;1009;51.436;6.972;2022-10-14T04:57:37;13.90;99.90
2012;DHT22;1009;51.436;6.972;2022-10-14T05:00:08;13.70;99.90
2012;DHT22;1009;51.436;6.972;2022-10-14T05:02:35;13.80;99.90
2012;DHT22;1009;51.436;6.972;2022-10-14T05:05:02;13.70;99.90
2012;DHT22;1009;51.436;6.972;2022-10-14T05:07:30;13.80;99.90
2012;DHT22;1009;51.436;6.972;2022-10-14T05:09:57;13.80;99.90
2012;DHT22;1009;51.436;6.972;2022-10-14T05:12:24;13.60;99.90
2012;DHT22;1009;51.436;6.972;2022-10-14T05:14:51;13.60;99.90
2012;DHT22;1009;51.436;6.972;2022-10-14T05:17:19;13.70;99.90
2012;DHT22;1009;51.436;6.972;2022-10-14T05:19:46;13.70;99.90
2012;DHT22;1009;51.436;6.972;2022-10-14T05:22:13;13.80;99.90
2012;DHT22;1009;51.436;6.972;2022-10-14T05:24:41;13.80;99.90
2012;DHT22;1009;51.436;6.972;2022-10-14T05:27:08;13.80;99.90
2012;DHT22;1009;51.436;6.972;2022-10-14T05:29:35;13.80;99.90
2012;DHT22;1009;51.436;6.972;2022-10-14T05:32:01;13.70;99.90
2012;DHT22;1009;51.436;6.972;2022-10-14T05:34:28;13.70;99.90
2012;DHT22;1009;51.436;6.972;2022-10-14T05:36:55;13.70;99.90
2012;DHT22;1009;51.436;6.972;2022-10-14T05:39:22;13.70;99.90
2012;DHT22;1009;51.436;6.972;2022-10-14T05:41:50;13.70;99.90
2012;DHT22;1009;51.436;6.972;2022-10-14T05:44:16;13.80;99.90
2012;DHT22;1009;51.436;6.972;2022-10-14T05:46:43;13.80;99.90
2012;DHT22;1009;51.436;6.972;2022-10-14T05:49:10;13.70;99.90
2012;DHT22;1009;51.436;6.972;2022-10-14T05:51:37;13.60;99.90
2012;DHT22;1009;51.436;6.972;2022-10-14T05:54:04;13.80;99.90
2012;DHT22;1009;51.436;6.972;2022-10-14T05:56:31;13.70;99.90
2012;DHT22;1009;51.436;6.972;2022-10-14T05:58:59;13.70;99.90
2012;DHT22;1009;51.436;6.972;2022-10-14T06:01:26;13.80;99.90
2012;DHT22;1009;51.436;6.972;2022-10-14T06:03:52;13.80;99.90
2012;DHT22;1009;51.436;6.972;2022-10-14T06:06:19;13.80;99.90
2012;DHT22;1009;51.436;6.972;2022-10-14T06:08:46;13.80;99.90
2012;DHT22;1009;51.436;6.972;2022-10-14T06:11:13;13.70;99.90
2012;DHT22;1009;51.436;6.972;2022-10-14T06:13:40;13.70;99.90
2012;DHT22;1009;51.436;6.972;2022-10-14T06:16:09;13.80;99.90
2012;DHT22;1009;51.436;6.972;2022-10-14T06:18:36;13.80;99.90
2012;DHT22;1009;51.436;6.972;2022-10-14T06:21:04;13.80;99.90
2012;DHT22;1009;51.436;6.972;2022-10-14T06:23:31;13.70;99.90
2012;DHT22;1009;51.436;6.972;2022-10-14T06:26:02;13.70;99.90
2012;DHT22;1009;51.436;6.972;2022-10-14T06:28:28;13.90;99.90
2012;DHT22;1009;51.436;6.972;2022-10-14T06:30:55;13.70;99.90
2012;DHT22;1009;51.436;6.972;2022-10-14T06:33:23;13.80;99.90
2012;DHT22;1009;51.436;6.972;2022-10-14T06:35:50;13.80;99.90
2012;DHT22;1009;51.436;6.972;2022-10-14T06:38:17;13.80;99.90
2012;DHT22;1009;51.436;6.972;2022-10-14T06:40:43;13.90;99.90
2012;DHT22;1009;51.436;6.972;2022-10-14T06:43:10;13.90;99.90
2012;DHT22;1009;51.436;6.972;2022-10-14T06:45:37;13.80;99.90
2012;DHT22;1009;51.436;6.972;2022-10-14T06:48:04;13.80;99.90
2012;DHT22;1009;51.436;6.972;2022-10-14T06:50:32;13.90;99.90
2012;DHT22;1009;51.436;6.972;2022-10-14T06:52:59;13.90;99.90
2012;DHT22;1009;51.436;6.972;2022-10-14T06:55:26;13.90;99.90
2012;DHT22;1009;51.436;6.972;2022-10-14T06:57:53;13.90;99.90
2012;DHT22;1009;51.436;6.972;2022-10-14T07:00:20;14.00;99.90
2012;DHT22;1009;51.436;6.972;2022-10-14T07:02:47;14.10;99.90
2012;DHT22;1009;51.436;6.972;2022-10-14T07:05:14;14.10;99.90
2012;DHT22;1009;51.436;6.972;2022-10-14T07:07:42;14.20;99.90
2012;DHT22;1009;51.436;6.972;2022-10-14T07:10:09;14.20;99.90
2012;DHT22;1009;51.436;6.972;2022-10-14T07:12:36;14.10;99.90
2012;DHT22;1009;51.436;6.972;2022-10-14T07:15:03;14.10;99.90
2012;DHT22;1009;51.436;6.972;2022-10-14T07:17:30;14.20;99.90
2012;DHT22;1009;51.436;6.972;2022-10-14T07:19:57;14.20;99.90
2012;DHT22;1009;51.436;6.972;2022-10-14T07:22:24;14.10;99.90
2012;DHT22;1009;51.436;6.972;2022-10-14T07:24:52;14.10;99.90
2012;DHT22;1009;51.436;6.972;2022-10-14T07:27:19;14.00;99.90
2012;DHT22;1009;51.436;6.972;2022-10-14T07:29:46;14.10;99.90
2012;DHT22;1009;51.436;6.972;2022-10-14T07:32:12;14.10;99.90
2012;DHT22;1009;51.436;6.972;2022-10-14T07:34:39;14.20;99.90
2012;DHT22;1009;51.436;6.972;2022-10-14T07:37:06;14.20;99.90
2012;DHT22;1009;51.436;6.972;2022-10-14T07:39:33;14.00;99.90
2012;DHT22;1009;51.436;6.972;2022-10-14T07:42:01;14.00;99.90
2012;DHT22;1009;51.436;6.972;2022-10-14T07:44:27;14.10;99.90
2012;DHT22;1009;51.436;6.972;2022-10-14T07:46:54;13.90;99.90
2012;DHT22;1009;51.436;6.972;2022-10-14T07:49:21;14.00;99.90
2012;DHT22;1009;51.436;6.972;2022-10-14T07:51:48;14.00;99.90
2012;DHT22;1009;51.436;6.972;2022-10-14T07:54:18;14.10;99.90
2012;DHT22;1009;51.436;6.972;2022-10-14T07:56:45;14.10;99.90
2012;DHT22;1009;51.436;6.972;2022-10-14T07:59:15;14.10;99.90
2012;DHT22;1009;51.436;6.972;2022-10-14T08:01:44;14.10;99.90
2012;DHT22;1009;51.436;6.972;2022-10-14T08:04:11;14.00;99.90
2012;DHT22;1009;51.436;6.972;2022-10-14T08:06:38;14.20;99.90
2012;DHT22;1009;51.436;6.972;2022-10-14T08:09:05;14.10;99.90
2012;DHT22;1009;51.436;6.972;2022-10-14T08:11:33;14.10;99.90
2012;DHT22;1009;51.436;6.972;2022-10-14T08:14:00;14.20;99.90
2012;DHT22;1009;51.436;6.972;2022-10-14T08:16:29;14.20;99.90
2012;DHT22;1009;51.436;6.972;2022-10-14T08:18:59;14.30;99.90
2012;DHT22;1009;51.436;6.972;2022-10-14T08:21:27;14.20;99.90
2012;DHT22;1009;51.436;6.972;2022-10-14T08:23:54;14.20;99.90
2012;DHT22;1009;51.436;6.972;2022-10-14T08:26:22;14.30;99.90
2012;DHT22;1009;51.436;6.972;2022-10-14T08:28:52;14.30;99.90
2012;DHT22;1009;51.436;6.972;2022-10-14T08:31:19;14.40;99.90
2012;DHT22;1009;51.436;6.972;2022-10-14T08:33:48;14.30;99.90
2012;DHT22;1009;51.436;6.972;2022-10-14T08:36:15;14.30;99.90
2012;DHT22;1009;51.436;6.972;2022-10-14T08:38:42;14.30;99.90
2012;DHT22;1009;51.436;6.972;2022-10-14T08:41:23;14.40;99.90
2012;DHT22;1009;51.436;6.972;2022-10-14T08:43:56;14.30;99.90
2012;DHT22;1009;51.436;6.972;2022-10-14T08:46:32;14.50;99.90
2012;DHT22;1009;51.436;6.972;2022-10-14T08:49:07;14.50;99.90
2012;DHT22;1009;51.436;6.972;2022-10-14T08:51:37;14.50;99.90
2012;DHT22;1009;51.436;6.972;2022-10-14T08:54:10;14.60;99.90
2012;DHT22;1009;51.436;6.972;2022-10-14T08:56:40;14.70;99.90
2012;DHT22;1009;51.436;6.972;2022-10-14T08:59:12;14.70;99.90
2012;DHT22;1009;51.436;6.972;2022-10-14T09:01:48;14.90;99.90
2012;DHT22;1009;51.436;6.972;2022-10-14T09:04:17;14.90;99.90
2012;DHT22;1009;51.436;6.972;2022-10-14T09:06:47;15.00;99.90
2012;DHT22;1009;51.436;6.972;2022-10-14T09:09:19;15.00;99.90
2012;DHT22;1009;51.436;6.972;2022-10-14T09:11:52;15.10;99.90
2012;DHT22;1009;51.436;6.972;2022-10-14T09:14:24;14.90;99.90
2012;DHT22;1009;51.436;6.972;2022-10-14T09:16:54;15.00;99.90
2012;DHT22;1009;51.436;6.972;2022-10-14T09:19:29;15.00;99.90
2012;DHT22;1009;51.436;6.972;2022-10-14T09:21:58;15.10;99.90
2012;DHT22;1009;51.436;6.972;2022-10-14T09:24:27;15.20;99.90
2012;DHT22;1009;51.436;6.972;2022-10-14T09:26:59;15.20;99.90
2012;DHT22;1009;51.436;6.972;2022-10-14T09:29:28;15.30;99.90
2012;DHT22;1009;51.436;6.972;2022-10-14T09:31:56;15.20;99.90
2012;DHT22;1009;51.436;6.972;2022-10-14T09:34:29;15.30;99.90
2012;DHT22;1009;51.436;6.972;2022-10-14T09:37:05;15.20;99.90
2012;DHT22;1009;51.436;6.972;2022-10-14T09:39:38;15.30;99.90
2012;DHT22;1009;51.436;6.972;2022-10-14T09:42:13;15.30;99.90
2012;DHT22;1009;51.436;6.972;2022-10-14T09:44:41;15.40;99.90
2012;DHT22;1009;51.436;6.972;2022-10-14T09:47:11;15.30;99.90
2012;DHT22;1009;51.436;6.972;2022-10-14T09:49:41;15.40;99.90
2012;DHT22;1009;51.436;6.972;2022-10-14T09:52:19;15.30;99.90
2012;DHT22;1009;51.436;6.972;2022-10-14T09:54:52;15.40;99.90
2012;DHT22;1009;51.436;6.972;2022-10-14T09:57:19;15.60;99.90
2012;DHT22;1009;51.436;6.972;2022-10-14T09:59:49;15.40;99.90
2012;DHT22;1009;51.436;6.972;2022-10-14T10:02:21;15.60;99.90
2012;DHT22;1009;51.436;6.972;2022-10-14T10:04:51;15.70;99.90
2012;DHT22;1009;51.436;6.972;2022-10-14T10:07:27;15.60;99.90
2012;DHT22;1009;51.436;6.972;2022-10-14T10:09:54;15.70;99.90
2012;DHT22;1009;51.436;6.972;2022-10-14T10:12:22;15.70;99.90
2012;DHT22;1009;51.436;6.972;2022-10-14T10:14:56;15.80;99.90
2012;DHT22;1009;51.436;6.972;2022-10-14T10:17:24;15.60;99.90
2012;DHT22;1009;51.436;6.972;2022-10-14T10:20:06;15.60;99.90
2012;DHT22;1009;51.436;6.972;2022-10-14T10:22:34;15.60;99.90
2012;DHT22;1009;51.436;6.972;2022-10-14T10:25:19;15.70;99.90
2012;DHT22;1009;51.436;6.972;2022-10-14T10:27:51;15.80;99.90
2012;DHT22;1009;51.436;6.972;2022-10-14T10:30:21;15.80;99.90
2012;DHT22;1009;51.436;6.972;2022-10-14T10:33:02;15.90;99.90
2012;DHT22;1009;51.436;6.972;2022-10-14T10:35:46;15.90;99.90
2012;DHT22;1009;51.436;6.972;2022-10-14T10:38:21;15.90;99.90
2012;DHT22;1009;51.436;6.972;2022-10-14T10:41:01;16.00;99.90
2012;DHT22;1009;51.436;6.972;2022-10-14T10:43:53;15.90;99.90
2012;DHT22;1009;51.436;6.972;2022-10-14T10:46:49;15.90;99.90
2012;DHT22;1009;51.436;6.972;2022-10-14T10:49:33;16.00;99.90
2012;DHT22;1009;51.436;6.972;2022-10-14T10:52:12;16.00;99.90
2012;DHT22;1009;51.436;6.972;2022-10-14T10:54:49;16.00;99.90
2012;DHT22;1009;51.436;6.972;2022-10-14T10:57:31;15.90;99.90
2012;DHT22;1009;51.436;6.972;2022-10-14T11:00:04;16.00;99.90
2012;DHT22;1009;51.436;6.972;2022-10-14T11:02:52;15.90;99.90
2012;DHT22;1009;51.436;6.972;2022-10-14T11:05:45;16.00;99.90
2012;DHT22;1009;51.436;6.972;2022-10-14T11:11:33;16.00;99.90
2012;DHT22;1009;51.436;6.972;2022-10-14T11:17:21;15.80;99.90
2012;DHT22;1009;51.436;6.972;2022-10-14T11:19:55;16.00;99.90
2012;DHT22;1009;51.436;6.972;2022-10-14T11:22:39;15.90;99.90
2012;DHT22;1009;51.436;6.972;2022-10-14T11:25:21;15.90;99.90
2012;DHT22;1009;51.436;6.972;2022-10-14T11:27:55;15.80;99.90
2012;DHT22;1009;51.436;6.972;2022-10-14T11:30:26;16.00;99.90
2012;DHT22;1009;51.436;6.972;2022-10-14T11:33:09;15.90;99.90
2012;DHT22;1009;51.436;6.972;2022-10-14T11:35:49;16.10;99.90
2012;DHT22;1009;51.436;6.972;2022-10-14T11:38:29;16.10;99.90
2012;DHT22;1009;51.436;6.972;2022-10-14T11:41:02;16.20;99.90
2012;DHT22;1009;51.436;6.972;2022-10-14T11:43:39;16.10;99.90
2012;DHT22;1009;51.436;6.972;2022-10-14T11:46:09;16.10;99.90
2012;DHT22;1009;51.436;6.972;2022-10-14T11:48:40;16.00;99.90
2012;DHT22;1009;51.436;6.972;2022-10-14T11:51:15;16.00;99.90
2012;DHT22;1009;51.436;6.972;2022-10-14T11:53:48;15.70;99.90
2012;DHT22;1009;51.436;6.972;2022-10-14T11:56:27;15.70;99.90
2012;DHT22;1009;51.436;6.972;2022-10-14T11:58:59;15.80;99.90
2012;DHT22;1009;51.436;6.972;2022-10-14T12:01:29;15.70;99.90
2012;DHT22;1009;51.436;6.972;2022-10-14T12:04:01;15.70;99.90
2012;DHT22;1009;51.436;6.972;2022-10-14T12:06:33;15.50;99.90
2012;DHT22;1009;51.436;6.972;2022-10-14T12:09:04;15.50;99.90
2012;DHT22;1009;51.436;6.972;2022-10-14T12:11:39;15.50;99.90
2012;DHT22;1009;51.436;6.972;2022-10-14T12:14:11;15.60;99.90
2012;DHT22;1009;51.436;6.972;2022-10-14T12:16:41;15.70;99.90
2012;DHT22;1009;51.436;6.972;2022-10-14T12:19:09;15.60;99.90
2012;DHT22;1009;51.436;6.972;2022-10-14T12:21:44;15.60;99.90
2012;DHT22;1009;51.436;6.972;2022-10-14T12:24:16;15.60;99.90
2012;DHT22;1009;51.436;6.972;2022-10-14T12:26:53;15.70;99.90
2012;DHT22;1009;51.436;6.972;2022-10-14T12:29:23;15.60;99.90
2012;DHT22;1009;51.436;6.972;2022-10-14T12:32:06;15.80;99.90
2012;DHT22;1009;51.436;6.972;2022-10-14T12:34:36;15.90;99.90
2012;DHT22;1009;51.436;6.972;2022-10-14T12:40:27;15.60;99.90
2012;DHT22;1009;51.436;6.972;2022-10-14T12:43:01;15.60;99.90
2012;DHT22;1009;51.436;6.972;2022-10-14T12:45:30;15.60;99.90
2012;DHT22;1009;51.436;6.972;2022-10-14T12:48:14;15.50;99.90
2012;DHT22;1009;51.436;6.972;2022-10-14T12:50:43;15.50;99.90
2012;DHT22;1009;51.436;6.972;2022-10-14T12:53:23;15.60;99.90
2012;DHT22;1009;51.436;6.972;2022-10-14T12:55:54;15.50;99.90
2012;DHT22;1009;51.436;6.972;2022-10-14T12:58:26;15.60;99.90
2012;DHT22;1009;51.436;6.972;2022-10-14T13:00:57;15.60;99.90
2012;DHT22;1009;51.436;6.972;2022-10-14T13:03:26;15.60;99.90
2012;DHT22;1009;51.436;6.972;2022-10-14T13:06:24;15.80;99.90
2012;DHT22;1009;51.436;6.972;2022-10-14T13:12:39;15.70;99.90
2012;DHT22;1009;51.436;6.972;2022-10-14T13:18:47;15.90;99.90
2012;DHT22;1009;51.436;6.972;2022-10-14T13:24:14;16.00;99.90
2012;DHT22;1009;51.436;6.972;2022-10-14T13:26:50;15.90;99.90
2012;DHT22;1009;51.436;6.972;2022-10-14T13:29:28;15.80;99.90
2012;DHT22;1009;51.436;6.972;2022-10-14T13:32:00;15.70;99.90
2012;DHT22;1009;51.436;6.972;2022-10-14T13:34:43;15.80;99.90
2012;DHT22;1009;51.436;6.972;2022-10-14T13:37:30;15.80;99.90
2012;DHT22;1009;51.436;6.972;2022-10-14T13:40:04;15.70;99.90
2012;DHT22;1009;51.436;6.972;2022-10-14T13:42:35;15.80;99.90
2012;DHT22;1009;51.436;6.972;2022-10-14T13:45:06;15.70;99.90
2012;DHT22;1009;51.436;6.972;2022-10-14T13:47:35;15.60;99.90
2012;DHT22;1009;51.436;6.972;2022-10-14T13:50:02;15.60;99.90
2012;DHT22;1009;51.436;6.972;2022-10-14T13:52:32;15.50;99.90
2012;DHT22;1009;51.436;6.972;2022-10-14T13:55:13;15.60;99.90
2012;DHT22;1009;51.436;6.972;2022-10-14T13:57:40;15.70;99.90
2012;DHT22;1009;51.436;6.972;2022-10-14T14:00:28;15.80;99.90
2012;DHT22;1009;51.436;6.972;2022-10-14T14:02:55;15.80;99.90
2012;DHT22;1009;51.436;6.972;2022-10-14T14:05:22;15.70;99.90
2012;DHT22;1009;51.436;6.972;2022-10-14T14:07:50;15.70;99.90
2012;DHT22;1009;51.436;6.972;2022-10-14T14:10:19;15.60;99.90
2012;DHT22;1009;51.436;6.972;2022-10-14T14:12:48;15.70;99.90
2012;DHT22;1009;51.436;6.972;2022-10-14T14:15:18;15.90;99.90
2012;DHT22;1009;51.436;6.972;2022-10-14T14:17:48;15.80;99.90
2012;DHT22;1009;51.436;6.972;2022-10-14T14:20:18;15.70;99.90
2012;DHT22;1009;51.436;6.972;2022-10-14T14:22:45;15.90;99.90
2012;DHT22;1009;51.436;6.972;2022-10-14T14:25:21;15.90;99.90
2012;DHT22;1009;51.436;6.972;2022-10-14T14:27:49;15.80;99.90
2012;DHT22;1009;51.436;6.972;2022-10-14T14:30:27;15.80;99.90
2012;DHT22;1009;51.436;6.972;2022-10-14T14:32:57;15.80;99.90
2012;DHT22;1009;51.436;6.972;2022-10-14T14:35:25;15.70;99.90
2012;DHT22;1009;51.436;6.972;2022-10-14T14:37:52;15.80;99.90
2012;DHT22;1009;51.436;6.972;2022-10-14T14:40:21;15.70;99.90
2012;DHT22;1009;51.436;6.972;2022-10-14T14:42:51;15.70;99.90
2012;DHT22;1009;51.436;6.972;2022-10-14T14:45:20;15.60;99.90
2012;DHT22;1009;51.436;6.972;2022-10-14T14:47:48;15.60;99.90
2012;DHT22;1009;51.436;6.972;2022-10-14T14:50:21;15.60;99.90
2012;DHT22;1009;51.436;6.972;2022-10-14T14:52:51;15.80;99.90
2012;DHT22;1009;51.436;6.972;2022-10-14T14:55:38;15.70;99.90
2012;DHT22;1009;51.436;6.972;2022-10-14T14:58:19;15.60;99.90
2012;DHT22;1009;51.436;6.972;2022-10-14T15:00:47;15.70;99.90
2012;DHT22;1009;51.436;6.972;2022-10-14T15:03:14;15.60;99.90
2012;DHT22;1009;51.436;6.972;2022-10-14T15:05:49;15.60;99.90
2012;DHT22;1009;51.436;6.972;2022-10-14T15:08:20;15.70;99.90
2012;DHT22;1009;51.436;6.972;2022-10-14T15:10:48;15.70;99.90
2012;DHT22;1009;51.436;6.972;2022-10-14T15:13:41;15.60;99.90
2012;DHT22;1009;51.436;6.972;2022-10-14T15:16:09;15.60;99.90
2012;DHT22;1009;51.436;6.972;2022-10-14T15:18:37;15.70;99.90
2012;DHT22;1009;51.436;6.972;2022-10-14T15:21:14;15.70;99.90
2012;DHT22;1009;51.436;6.972;2022-10-14T15:23:43;15.60;99.90
2012;DHT22;1009;51.436;6.972;2022-10-14T15:26:22;15.70;99.90
2012;DHT22;1009;51.436;6.972;2022-10-14T15:29:04;15.70;99.90
2012;DHT22;1009;51.436;6.972;2022-10-14T15:31:32;15.70;99.90
2012;DHT22;1009;51.436;6.972;2022-10-14T15:33:59;15.70;99.90
2012;DHT22;1009;51.436;6.972;2022-10-14T15:36:29;15.80;99.90
2012;DHT22;1009;51.436;6.972;2022-10-14T15:38:56;15.80;99.90
2012;DHT22;1009;51.436;6.972;2022-10-14T15:41:25;15.70;99.90
2012;DHT22;1009;51.436;6.972;2022-10-14T15:43:52;15.70;99.90
2012;DHT22;1009;51.436;6.972;2022-10-14T15:46:19;15.60;99.90
2012;DHT22;1009;51.436;6.972;2022-10-14T15:49:12;15.60;99.90
2012;DHT22;1009;51.436;6.972;2022-10-14T15:51:41;15.80;99.90
2012;DHT22;1009;51.436;6.972;2022-10-14T15:54:09;15.80;99.90
2012;DHT22;1009;51.436;6.972;2022-10-14T15:56:36;15.70;99.90
2012;DHT22;1009;51.436;6.972;2022-10-14T15:59:04;15.60;99.90
2012;DHT22;1009;51.436;6.972;2022-10-14T16:01:32;15.60;99.90
2012;DHT22;1009;51.436;6.972;2022-10-14T16:04:00;15.70;99.90
2012;DHT22;1009;51.436;6.972;2022-10-14T16:06:28;15.60;99.90
2012;DHT22;1009;51.436;6.972;2022-10-14T16:08:56;15.60;99.90
2012;DHT22;1009;51.436;6.972;2022-10-14T16:11:25;15.70;99.90
2012;DHT22;1009;51.436;6.972;2022-10-14T16:13:53;15.80;99.90
2012;DHT22;1009;51.436;6.972;2022-10-14T16:16:22;15.60;99.90
2012;DHT22;1009;51.436;6.972;2022-10-14T16:18:49;15.60;99.90
2012;DHT22;1009;51.436;6.972;2022-10-14T16:21:17;15.70;99.90
2012;DHT22;1009;51.436;6.972;2022-10-14T16:23:43;15.80;99.90
2012;DHT22;1009;51.436;6.972;2022-10-14T16:26:11;15.60;99.90
2012;DHT22;1009;51.436;6.972;2022-10-14T16:28:39;15.60;99.90
2012;DHT22;1009;51.436;6.972;2022-10-14T16:31:05;15.70;99.90
2012;DHT22;1009;51.436;6.972;2022-10-14T16:33:32;15.60;99.90
2012;DHT22;1009;51.436;6.972;2022-10-14T16:35:59;15.60;99.90
2012;DHT22;1009;51.436;6.972;2022-10-14T16:38:26;15.60;99.90
2012;DHT22;1009;51.436;6.972;2022-10-14T16:40:53;15.60;99.90
2012;DHT22;1009;51.436;6.972;2022-10-14T16:43:22;15.60;99.90
2012;DHT22;1009;51.436;6.972;2022-10-14T16:45:49;15.60;99.90